sensor_id;sensor_type;location;lat;lon;timestamp;pressure;altitude;pressure_sealevel;temperature;humidity
57086;BME280;42964;42.910;23.792;2022-12-16T00:04:56;97388.06;;;0.92;100.00
57086;BME280;42964;42.910;23.792;2022-12-16T00:09:55;97394.25;;;0.98;100.00
57086;BME280;42964;42.910;23.792;2022-12-16T00:14:54;97398.19;;;0.88;100.00
57086;BME280;42964;42.910;23.792;2022-12-16T00:19:53;97389.63;;;0.86;100.00
57086;BME280;42964;42.910;23.792;2022-12-16T00:24:52;97398.84;;;0.81;100.00
57086;BME280;42964;42.910;23.792;2022-12-16T00:29:51;97368.13;;;0.80;100.00
57086;BME280;42964;42.910;23.792;2022-12-16T00:34:50;97374.69;;;0.72;100.00
57086;BME280;42964;42.910;23.792;2022-12-16T00:39:49;97356.75;;;0.70;100.00
57086;BME280;42964;42.910;23.792;2022-12-16T00:44:48;97370.38;;;0.69;100.00
57086;BME280;42964;42.910;23.792;2022-12-16T00:49:47;97356.84;;;0.73;100.00
57086;BME280;42964;42.910;23.792;2022-12-16T00:54:46;97344.28;;;0.79;100.00
57086;BME280;42964;42.910;23.792;2022-12-16T00:59:45;97360.44;;;0.78;100.00
57086;BME280;42964;42.910;23.792;2022-12-16T01:04:43;97326.34;;;0.78;100.00
57086;BME280;42964;42.910;23.792;2022-12-16T01:09:42;97340.00;;;0.78;100.00
57086;BME280;42964;42.910;23.792;2022-12-16T01:14:42;97318.03;;;0.83;100.00
57086;BME280;42964;42.910;23.792;2022-12-16T01:19:41;97317.81;;;0.76;100.00
57086;BME280;42964;42.910;23.792;2022-12-16T01:24:39;97308.53;;;0.79;100.00
57086;BME280;42964;42.910;23.792;2022-12-16T01:29:39;97295.94;;;0.85;100.00
57086;BME280;42964;42.910;23.792;2022-12-16T01:34:38;97303.13;;;0.99;100.00
57086;BME280;42964;42.910;23.792;2022-12-16T01:39:37;97288.13;;;1.09;100.00
57086;BME280;42964;42.910;23.792;2022-12-16T01:44:36;97308.00;;;1.20;100.00
57086;BME280;42964;42.910;23.792;2022-12-16T01:49:39;97298.47;;;1.14;100.00
57086;BME280;42964;42.910;23.792;2022-12-16T01:54:42;97288.47;;;1.22;100.00
57086;BME280;42964;42.910;23.792;2022-12-16T01:59:45;97285.03;;;1.21;100.00
57086;BME280;42964;42.910;23.792;2022-12-16T02:04:48;97286.34;;;1.39;100.00
57086;BME280;42964;42.910;23.792;2022-12-16T02:10:06;97288.31;;;1.47;100.00
57086;BME280;42964;42.910;23.792;2022-12-16T02:15:24;97277.47;;;1.56;100.00
57086;BME280;42964;42.910;23.792;2022-12-16T02:21:11;97258.53;;;1.49;100.00
57086;BME280;42964;42.910;23.792;2022-12-16T02:31:57;97261.66;;;1.71;100.00
57086;BME280;42964;42.910;23.792;2022-12-16T02:37:35;97251.59;;;1.77;100.00
57086;BME280;42964;42.910;23.792;2022-12-16T02:42:56;97243.41;;;1.92;100.00
57086;BME280;42964;42.910;23.792;2022-12-16T02:47:56;97243.63;;;2.01;100.00
57086;BME280;42964;42.910;23.792;2022-12-16T02:52:55;97262.75;;;2.15;100.00
57086;BME280;42964;42.910;23.792;2022-12-16T02:58:08;97266.66;;;2.36;100.00
57086;BME280;42964;42.910;23.792;2022-12-16T03:03:32;97276.16;;;2.40;100.00
57086;BME280;42964;42.910;23.792;2022-12-16T03:08:39;97282.28;;;2.47;100.00
57086;BME280;42964;42.910;23.792;2022-12-16T03:13:43;97319.38;;;2.64;100.00
57086;BME280;42964;42.910;23.792;2022-12-16T03:18:46;97313.81;;;2.44;100.00
57086;BME280;42964;42.910;23.792;2022-12-16T03:29:01;97313.72;;;2.41;100.00
57086;BME280;42964;42.910;23.792;2022-12-16T03:34:30;97305.44;;;2.51;100.00
57086;BME280;42964;42.910;23.792;2022-12-16T03:39:32;97294.78;;;2.71;100.00
57086;BME280;42964;42.910;23.792;2022-12-16T03:44:34;97289.81;;;2.78;100.00
57086;BME280;42964;42.910;23.792;2022-12-16T03:49:33;97287.50;;;2.89;100.00
57086;BME280;42964;42.910;23.792;2022-12-16T03:54:32;97296.00;;;2.88;100.00
57086;BME280;42964;42.910;23.792;2022-12-16T03:59:31;97302.59;;;2.77;100.00
57086;BME280;42964;42.910;23.792;2022-12-16T04:04:30;97321.09;;;2.64;100.00
57086;BME280;42964;42.910;23.792;2022-12-16T04:09:29;97322.75;;;2.62;100.00
57086;BME280;42964;42.910;23.792;2022-12-16T04:14:28;97320.03;;;2.55;100.00
57086;BME280;42964;42.910;23.792;2022-12-16T04:19:45;97327.81;;;2.58;100.00
57086;BME280;42964;42.910;23.792;2022-12-16T04:25:09;97330.38;;;2.60;100.00
57086;BME280;42964;42.910;23.792;2022-12-16T04:30:10;97310.09;;;2.69;100.00
57086;BME280;42964;42.910;23.792;2022-12-16T04:35:18;97305.44;;;2.89;100.00
57086;BME280;42964;42.910;23.792;2022-12-16T04:40:36;97293.53;;;2.93;100.00
57086;BME280;42964;42.910;23.792;2022-12-16T04:45:53;97298.94;;;3.05;100.00
57086;BME280;42964;42.910;23.792;2022-12-16T04:51:11;97305.19;;;2.78;100.00
57086;BME280;42964;42.910;23.792;2022-12-16T04:56:28;97318.84;;;2.77;100.00
57086;BME280;42964;42.910;23.792;2022-12-16T05:01:45;97333.53;;;2.86;100.00
57086;BME280;42964;42.910;23.792;2022-12-16T05:07:03;97319.97;;;2.90;100.00
57086;BME280;42964;42.910;23.792;2022-12-16T05:12:20;97339.44;;;2.82;100.00
57086;BME280;42964;42.910;23.792;2022-12-16T05:17:38;97317.03;;;2.73;100.00
57086;BME280;42964;42.910;23.792;2022-12-16T05:22:55;97320.50;;;2.75;100.00
57086;BME280;42964;42.910;23.792;2022-12-16T05:28:13;97309.28;;;2.70;100.00
57086;BME280;42964;42.910;23.792;2022-12-16T05:33:31;97334.63;;;2.59;100.00
57086;BME280;42964;42.910;23.792;2022-12-16T05:38:48;97383.09;;;2.50;100.00
57086;BME280;42964;42.910;23.792;2022-12-16T05:44:05;97379.94;;;2.61;100.00
57086;BME280;42964;42.910;23.792;2022-12-16T05:49:23;97414.38;;;2.73;100.00
57086;BME280;42964;42.910;23.792;2022-12-16T05:54:40;97424.00;;;2.82;100.00
57086;BME280;42964;42.910;23.792;2022-12-16T05:59:58;97445.31;;;2.81;100.00
57086;BME280;42964;42.910;23.792;2022-12-16T06:05:15;97452.31;;;2.87;100.00
57086;BME280;42964;42.910;23.792;2022-12-16T06:10:39;97432.88;;;2.96;100.00
57086;BME280;42964;42.910;23.792;2022-12-16T06:15:57;97418.31;;;2.95;100.00
57086;BME280;42964;42.910;23.792;2022-12-16T06:21:14;97448.59;;;3.12;100.00
57086;BME280;42964;42.910;23.792;2022-12-16T06:26:32;97456.41;;;3.16;100.00
57086;BME280;42964;42.910;23.792;2022-12-16T06:31:49;97448.97;;;3.27;100.00
57086;BME280;42964;42.910;23.792;2022-12-16T06:37:07;97443.19;;;3.36;100.00
57086;BME280;42964;42.910;23.792;2022-12-16T06:42:24;97446.50;;;3.32;100.00
57086;BME280;42964;42.910;23.792;2022-12-16T06:47:42;97450.91;;;3.37;100.00
57086;BME280;42964;42.910;23.792;2022-12-16T06:52:59;97445.28;;;3.54;100.00
57086;BME280;42964;42.910;23.792;2022-12-16T06:58:17;97431.75;;;3.61;100.00
57086;BME280;42964;42.910;23.792;2022-12-16T07:03:34;97431.97;;;3.72;100.00
57086;BME280;42964;42.910;23.792;2022-12-16T07:08:52;97434.63;;;3.76;100.00
57086;BME280;42964;42.910;23.792;2022-12-16T07:14:09;97422.72;;;3.78;100.00
57086;BME280;42964;42.910;23.792;2022-12-16T07:19:37;97449.38;;;3.86;100.00
57086;BME280;42964;42.910;23.792;2022-12-16T07:24:54;97459.84;;;3.96;100.00
57086;BME280;42964;42.910;23.792;2022-12-16T07:30:12;97461.31;;;3.84;100.00
57086;BME280;42964;42.910;23.792;2022-12-16T07:35:29;97464.06;;;3.94;100.00
57086;BME280;42964;42.910;23.792;2022-12-16T07:40:47;97467.63;;;3.99;100.00
57086;BME280;42964;42.910;23.792;2022-12-16T07:46:04;97466.59;;;3.91;100.00
57086;BME280;42964;42.910;23.792;2022-12-16T07:51:22;97459.97;;;4.02;100.00
57086;BME280;42964;42.910;23.792;2022-12-16T07:56:39;97454.97;;;4.10;100.00
57086;BME280;42964;42.910;23.792;2022-12-16T08:01:56;97435.59;;;4.25;100.00
57086;BME280;42964;42.910;23.792;2022-12-16T08:07:14;97435.16;;;4.49;100.00
57086;BME280;42964;42.910;23.792;2022-12-16T08:12:31;97448.25;;;4.63;100.00
57086;BME280;42964;42.910;23.792;2022-12-16T08:17:50;97458.97;;;4.88;100.00
57086;BME280;42964;42.910;23.792;2022-12-16T08:23:08;97444.59;;;4.99;100.00
57086;BME280;42964;42.910;23.792;2022-12-16T08:28:25;97437.16;;;5.18;100.00
57086;BME280;42964;42.910;23.792;2022-12-16T08:33:42;97412.56;;;5.37;100.00
57086;BME280;42964;42.910;23.792;2022-12-16T08:39:00;97425.03;;;5.68;100.00
57086;BME280;42964;42.910;23.792;2022-12-16T08:44:17;97409.84;;;5.90;100.00
57086;BME280;42964;42.910;23.792;2022-12-16T08:49:35;97411.88;;;6.17;100.00
57086;BME280;42964;42.910;23.792;2022-12-16T08:54:52;97387.22;;;6.44;100.00
57086;BME280;42964;42.910;23.792;2022-12-16T09:00:10;97372.03;;;6.76;100.00
57086;BME280;42964;42.910;23.792;2022-12-16T09:05:28;97348.22;;;7.11;100.00
57086;BME280;42964;42.910;23.792;2022-12-16T09:10:46;97344.88;;;7.35;100.00
57086;BME280;42964;42.910;23.792;2022-12-16T09:16:03;97348.56;;;7.78;100.00
57086;BME280;42964;42.910;23.792;2022-12-16T09:21:21;97343.47;;;8.04;100.00
57086;BME280;42964;42.910;23.792;2022-12-16T09:26:38;97341.78;;;8.40;100.00
57086;BME280;42964;42.910;23.792;2022-12-16T09:31:56;97347.00;;;8.69;100.00
57086;BME280;42964;42.910;23.792;2022-12-16T09:37:13;97341.78;;;8.92;100.00
57086;BME280;42964;42.910;23.792;2022-12-16T09:48:26;97318.34;;;9.55;100.00
57086;BME280;42964;42.910;23.792;2022-12-16T09:53:47;97298.34;;;9.84;100.00
57086;BME280;42964;42.910;23.792;2022-12-16T09:59:12;97301.63;;;10.19;100.00
57086;BME280;42964;42.910;23.792;2022-12-16T10:04:30;97295.34;;;10.48;99.51
57086;BME280;42964;42.910;23.792;2022-12-16T10:09:57;97293.38;;;10.78;100.00
57086;BME280;42964;42.910;23.792;2022-12-16T10:15:30;97291.31;;;11.12;99.57
57086;BME280;42964;42.910;23.792;2022-12-16T10:20:51;97295.41;;;11.35;100.00
57086;BME280;42964;42.910;23.792;2022-12-16T10:31:28;97275.69;;;11.85;94.07
57086;BME280;42964;42.910;23.792;2022-12-16T10:36:47;97249.16;;;12.22;95.64
57086;BME280;42964;42.910;23.792;2022-12-16T10:42:48;97256.00;;;12.30;92.51
57086;BME280;42964;42.910;23.792;2022-12-16T10:47:58;97240.56;;;12.71;94.15
57086;BME280;42964;42.910;23.792;2022-12-16T10:53:33;97235.72;;;12.99;91.71
57086;BME280;42964;42.910;23.792;2022-12-16T10:58:53;97233.22;;;13.38;88.63
57086;BME280;42964;42.910;23.792;2022-12-16T11:04:32;97238.47;;;13.78;85.85
57086;BME280;42964;42.910;23.792;2022-12-16T11:09:50;97238.25;;;14.25;87.88
57086;BME280;42964;42.910;23.792;2022-12-16T11:15:27;97235.41;;;14.72;90.84
57086;BME280;42964;42.910;23.792;2022-12-16T11:20:44;97231.50;;;15.19;82.71
57086;BME280;42964;42.910;23.792;2022-12-16T11:26:17;97235.78;;;15.53;79.15
57086;BME280;42964;42.910;23.792;2022-12-16T11:31:35;97231.84;;;15.68;74.09
57086;BME280;42964;42.910;23.792;2022-12-16T11:36:52;97226.63;;;15.68;72.38
57086;BME280;42964;42.910;23.792;2022-12-16T11:42:22;97219.81;;;15.62;69.87
57086;BME280;42964;42.910;23.792;2022-12-16T11:53:03;97210.56;;;15.80;65.76
57086;BME280;42964;42.910;23.792;2022-12-16T12:03:53;97207.31;;;15.72;67.47
57086;BME280;42964;42.910;23.792;2022-12-16T12:09:35;97218.75;;;15.70;66.24
57086;BME280;42964;42.910;23.792;2022-12-16T12:20:40;97205.06;;;15.90;62.99
57086;BME280;42964;42.910;23.792;2022-12-16T12:26:16;97207.22;;;16.05;65.96
57086;BME280;42964;42.910;23.792;2022-12-16T12:37:35;97209.94;;;16.28;61.90
57086;BME280;42964;42.910;23.792;2022-12-16T12:42:55;97206.25;;;16.34;63.90
57086;BME280;42964;42.910;23.792;2022-12-16T12:59:52;97204.91;;;16.49;60.83
57086;BME280;42964;42.910;23.792;2022-12-16T13:05:13;97211.09;;;16.46;58.83
57086;BME280;42964;42.910;23.792;2022-12-16T13:10:35;97211.19;;;16.43;60.64
57086;BME280;42964;42.910;23.792;2022-12-16T13:15:52;97214.03;;;16.37;61.41
57086;BME280;42964;42.910;23.792;2022-12-16T13:27:00;97219.75;;;16.48;60.89
57086;BME280;42964;42.910;23.792;2022-12-16T13:32:23;97217.63;;;16.60;63.32
57086;BME280;42964;42.910;23.792;2022-12-16T13:37:50;97220.22;;;16.61;61.95
57086;BME280;42964;42.910;23.792;2022-12-16T13:43:42;97234.63;;;16.48;58.70
57086;BME280;42964;42.910;23.792;2022-12-16T13:55:02;97243.75;;;16.35;60.96
57086;BME280;42964;42.910;23.792;2022-12-16T14:00:27;97253.69;;;16.25;61.13
57086;BME280;42964;42.910;23.792;2022-12-16T14:05:45;97262.03;;;16.09;59.89
57086;BME280;42964;42.910;23.792;2022-12-16T14:11:07;97268.38;;;16.02;62.15
57086;BME280;42964;42.910;23.792;2022-12-16T14:27:38;97282.41;;;15.68;63.91
57086;BME280;42964;42.910;23.792;2022-12-16T14:32:56;97283.72;;;15.54;62.65
57086;BME280;42964;42.910;23.792;2022-12-16T14:38:28;97282.22;;;15.43;62.69
57086;BME280;42964;42.910;23.792;2022-12-16T14:43:46;97279.13;;;15.31;64.51
57086;BME280;42964;42.910;23.792;2022-12-16T14:49:34;97279.53;;;15.15;63.73
57086;BME280;42964;42.910;23.792;2022-12-16T14:54:51;97283.06;;;15.13;66.48
57086;BME280;42964;42.910;23.792;2022-12-16T15:00:13;97291.22;;;15.02;65.20
57086;BME280;42964;42.910;23.792;2022-12-16T15:05:33;97296.47;;;15.00;67.06
57086;BME280;42964;42.910;23.792;2022-12-16T15:10:51;97292.16;;;14.99;66.86
57086;BME280;42964;42.910;23.792;2022-12-16T15:16:15;97280.78;;;15.00;66.36
57086;BME280;42964;42.910;23.792;2022-12-16T15:21:34;97285.31;;;14.94;65.41
57086;BME280;42964;42.910;23.792;2022-12-16T15:32:33;97295.78;;;14.94;64.88
57086;BME280;42964;42.910;23.792;2022-12-16T15:37:50;97307.69;;;14.71;66.71
57086;BME280;42964;42.910;23.792;2022-12-16T15:43:21;97289.59;;;14.62;67.08
57086;BME280;42964;42.910;23.792;2022-12-16T15:48:41;97303.97;;;14.43;67.84
57086;BME280;42964;42.910;23.792;2022-12-16T15:54:02;97272.94;;;14.30;68.95
57086;BME280;42964;42.910;23.792;2022-12-16T15:59:27;97292.88;;;14.33;68.06
57086;BME280;42964;42.910;23.792;2022-12-16T16:04:45;97280.00;;;14.27;67.82
57086;BME280;42964;42.910;23.792;2022-12-16T16:10:21;97279.88;;;14.31;67.83
57086;BME280;42964;42.910;23.792;2022-12-16T16:15:38;97274.50;;;14.37;66.79
57086;BME280;42964;42.910;23.792;2022-12-16T16:20:56;97273.66;;;14.37;66.64
57086;BME280;42964;42.910;23.792;2022-12-16T16:26:16;97267.50;;;14.39;65.69
57086;BME280;42964;42.910;23.792;2022-12-16T16:31:34;97278.56;;;14.49;66.44
57086;BME280;42964;42.910;23.792;2022-12-16T16:36:53;97282.91;;;14.50;66.85
57086;BME280;42964;42.910;23.792;2022-12-16T16:42:11;97283.03;;;14.46;65.62
57086;BME280;42964;42.910;23.792;2022-12-16T16:47:28;97288.97;;;14.15;66.83
57086;BME280;42964;42.910;23.792;2022-12-16T16:52:46;97280.56;;;14.01;67.61
57086;BME280;42964;42.910;23.792;2022-12-16T16:58:14;97285.41;;;13.78;68.17
57086;BME280;42964;42.910;23.792;2022-12-16T17:03:32;97297.06;;;13.61;68.71
57086;BME280;42964;42.910;23.792;2022-12-16T17:08:50;97299.03;;;13.49;69.16
57086;BME280;42964;42.910;23.792;2022-12-16T17:14:12;97296.59;;;13.40;70.23
57086;BME280;42964;42.910;23.792;2022-12-16T17:19:30;97300.22;;;13.31;70.01
57086;BME280;42964;42.910;23.792;2022-12-16T17:24:48;97278.63;;;13.25;69.99
57086;BME280;42964;42.910;23.792;2022-12-16T17:30:23;97288.53;;;13.07;70.97
57086;BME280;42964;42.910;23.792;2022-12-16T17:35:41;97279.19;;;12.96;70.90
57086;BME280;42964;42.910;23.792;2022-12-16T17:40:58;97275.94;;;12.83;71.58
57086;BME280;42964;42.910;23.792;2022-12-16T17:46:16;97282.06;;;12.80;72.00
57086;BME280;42964;42.910;23.792;2022-12-16T17:51:33;97275.94;;;12.83;72.56
57086;BME280;42964;42.910;23.792;2022-12-16T17:56:50;97280.13;;;12.91;72.01
57086;BME280;42964;42.910;23.792;2022-12-16T18:02:11;97278.53;;;12.83;72.23
57086;BME280;42964;42.910;23.792;2022-12-16T18:07:28;97288.97;;;12.83;72.73
57086;BME280;42964;42.910;23.792;2022-12-16T18:12:46;97291.69;;;12.77;72.09
57086;BME280;42964;42.910;23.792;2022-12-16T18:18:04;97313.22;;;12.86;71.65
57086;BME280;42964;42.910;23.792;2022-12-16T18:23:21;97303.56;;;12.91;70.45
57086;BME280;42964;42.910;23.792;2022-12-16T18:28:39;97290.31;;;13.04;70.23
57086;BME280;42964;42.910;23.792;2022-12-16T18:33:56;97276.38;;;13.06;69.29
57086;BME280;42964;42.910;23.792;2022-12-16T18:39:14;97288.47;;;13.10;68.69
57086;BME280;42964;42.910;23.792;2022-12-16T18:44:31;97290.84;;;13.23;68.17
57086;BME280;42964;42.910;23.792;2022-12-16T18:49:49;97286.44;;;13.26;67.85
57086;BME280;42964;42.910;23.792;2022-12-16T18:55:07;97294.84;;;13.41;67.61
57086;BME280;42964;42.910;23.792;2022-12-16T19:00:25;97306.13;;;13.41;67.04
57086;BME280;42964;42.910;23.792;2022-12-16T19:05:42;97290.41;;;13.44;66.93
57086;BME280;42964;42.910;23.792;2022-12-16T19:10:59;97318.13;;;13.48;66.97
57086;BME280;42964;42.910;23.792;2022-12-16T19:16:17;97319.91;;;13.46;67.03
57086;BME280;42964;42.910;23.792;2022-12-16T19:21:34;97336.38;;;13.50;66.65
57086;BME280;42964;42.910;23.792;2022-12-16T19:26:52;97325.81;;;13.57;67.00
57086;BME280;42964;42.910;23.792;2022-12-16T19:32:10;97327.56;;;13.59;66.29
57086;BME280;42964;42.910;23.792;2022-12-16T19:37:27;97337.06;;;13.60;66.50
57086;BME280;42964;42.910;23.792;2022-12-16T19:42:44;97337.06;;;13.60;67.09
57086;BME280;42964;42.910;23.792;2022-12-16T19:48:03;97344.97;;;13.53;67.11
57086;BME280;42964;42.910;23.792;2022-12-16T19:53:21;97344.06;;;13.57;66.80
57086;BME280;42964;42.910;23.792;2022-12-16T19:58:38;97344.81;;;13.64;66.69
57086;BME280;42964;42.910;23.792;2022-12-16T20:03:56;97341.28;;;13.65;66.72
57086;BME280;42964;42.910;23.792;2022-12-16T20:09:13;97346.59;;;13.61;66.52
57086;BME280;42964;42.910;23.792;2022-12-16T20:14:31;97345.75;;;13.60;66.60
57086;BME280;42964;42.910;23.792;2022-12-16T20:19:48;97338.78;;;13.61;66.67
57086;BME280;42964;42.910;23.792;2022-12-16T20:25:06;97324.97;;;13.55;66.90
57086;BME280;42964;42.910;23.792;2022-12-16T20:30:24;97331.78;;;13.63;66.74
57086;BME280;42964;42.910;23.792;2022-12-16T20:35:41;97340.38;;;13.68;66.40
57086;BME280;42964;42.910;23.792;2022-12-16T20:41:02;97333.38;;;13.70;66.41
57086;BME280;42964;42.910;23.792;2022-12-16T20:46:20;97352.47;;;13.72;66.11
57086;BME280;42964;42.910;23.792;2022-12-16T20:51:38;97331.59;;;13.72;65.80
57086;BME280;42964;42.910;23.792;2022-12-16T20:56:55;97347.22;;;13.75;65.64
57086;BME280;42964;42.910;23.792;2022-12-16T21:02:13;97352.44;;;13.75;65.40
57086;BME280;42964;42.910;23.792;2022-12-16T21:07:31;97348.00;;;13.77;65.21
57086;BME280;42964;42.910;23.792;2022-12-16T21:12:48;97352.34;;;13.78;65.50
57086;BME280;42964;42.910;23.792;2022-12-16T21:18:06;97363.47;;;13.86;65.31
57086;BME280;42964;42.910;23.792;2022-12-16T21:23:23;97363.47;;;13.88;64.84
57086;BME280;42964;42.910;23.792;2022-12-16T21:28:41;97360.00;;;13.87;64.53
57086;BME280;42964;42.910;23.792;2022-12-16T21:33:58;97365.41;;;13.76;64.61
57086;BME280;42964;42.910;23.792;2022-12-16T21:39:16;97358.16;;;13.47;65.70
57086;BME280;42964;42.910;23.792;2022-12-16T21:44:33;97360.31;;;13.24;66.37
57086;BME280;42964;42.910;23.792;2022-12-16T21:49:50;97355.28;;;13.13;67.22
57086;BME280;42964;42.910;23.792;2022-12-16T21:55:08;97349.16;;;13.14;67.16
57086;BME280;42964;42.910;23.792;2022-12-16T22:00:25;97358.88;;;13.07;67.21
57086;BME280;42964;42.910;23.792;2022-12-16T22:05:43;97354.59;;;13.02;67.29
57086;BME280;42964;42.910;23.792;2022-12-16T22:11:07;97353.19;;;12.82;67.81
57086;BME280;42964;42.910;23.792;2022-12-16T22:16:25;97344.97;;;12.56;68.74
57086;BME280;42964;42.910;23.792;2022-12-16T22:21:42;97339.34;;;12.21;70.21
57086;BME280;42964;42.910;23.792;2022-12-16T22:27:00;97350.00;;;12.03;71.06
57086;BME280;42964;42.910;23.792;2022-12-16T22:32:17;97349.28;;;11.92;71.79
57086;BME280;42964;42.910;23.792;2022-12-16T22:37:35;97339.78;;;11.89;71.97
57086;BME280;42964;42.910;23.792;2022-12-16T22:42:52;97339.22;;;11.64;73.33
57086;BME280;42964;42.910;23.792;2022-12-16T22:48:11;97332.41;;;11.54;73.10
57086;BME280;42964;42.910;23.792;2022-12-16T22:53:28;97331.69;;;11.42;73.90
57086;BME280;42964;42.910;23.792;2022-12-16T22:58:46;97302.44;;;11.25;74.74
57086;BME280;42964;42.910;23.792;2022-12-16T23:04:03;97311.09;;;11.25;75.03
57086;BME280;42964;42.910;23.792;2022-12-16T23:09:21;97308.63;;;11.10;75.98
57086;BME280;42964;42.910;23.792;2022-12-16T23:14:38;97315.69;;;10.99;76.33
57086;BME280;42964;42.910;23.792;2022-12-16T23:19:56;97314.06;;;10.86;76.63
57086;BME280;42964;42.910;23.792;2022-12-16T23:25:13;97297.91;;;10.54;78.13
57086;BME280;42964;42.910;23.792;2022-12-16T23:30:31;97292.09;;;10.22;79.36
57086;BME280;42964;42.910;23.792;2022-12-16T23:35:48;97284.50;;;9.91;80.93
57086;BME280;42964;42.910;23.792;2022-12-16T23:41:06;97292.34;;;9.80;80.74
57086;BME280;42964;42.910;23.792;2022-12-16T23:46:23;97282.91;;;9.68;81.84
57086;BME280;42964;42.910;23.792;2022-12-16T23:51:41;97279.50;;;9.59;81.75
57086;BME280;42964;42.910;23.792;2022-12-16T23:57:15;97272.66;;;9.44;82.84
